www.cux-wetter.de
Wetterdaten: Dienstag, 25.09.2012
Datum Zeit Temp. A. Feuchte A. Luftdruck Regen Wind Richtung Richtung Sonnenschein Solar Taupunkt Windchill Windben
25.09.2012 00:00 12,6 C 86 % 993,5 hPa 0,0 l/m 30,8 km/h (5 Bft) SW 220 0 min 0 W/m 10,3 C 4,2 C 30,8 km/h (5 Bft)
25.09.2012 00:15 12,6 C 86 % 993,5 hPa 0,0 l/m 25,8 km/h (4 Bft) SW 215 0 min 0 W/m 10,3 C 5,2 C 25,8 km/h (4 Bft)
25.09.2012 00:30 12,6 C 86 % 994,5 hPa 0,0 l/m 27,1 km/h (5 Bft) SW 220 0 min 0 W/m 10,3 C 4,9 C 27,1 km/h (5 Bft)
25.09.2012 00:44 12,6 C 85 % 994,5 hPa 0,0 l/m 29,7 km/h (5 Bft) S-SW 210 0 min 0 W/m 10,1 C 4,4 C 29,7 km/h (5 Bft)
25.09.2012 01:00 12,5 C 85 % 994,5 hPa 0,0 l/m 24,3 km/h (4 Bft) S-SW 210 0 min 0 W/m 10,0 C 5,4 C 24,3 km/h (4 Bft)
25.09.2012 01:15 12,2 C 85 % 994,5 hPa 0,0 l/m 22,0 km/h (4 Bft) S-SW 205 0 min 0 W/m 9,8 C 5,6 C 22,0 km/h (4 Bft)
25.09.2012 01:30 12,0 C 85 % 994,5 hPa 0,0 l/m 16,6 km/h (3 Bft) S-SW 205 0 min 0 W/m 9,6 C 7,0 C 16,6 km/h (3 Bft)
25.09.2012 01:45 11,9 C 86 % 994,5 hPa 0,0 l/m 17,8 km/h (3 Bft) S-SW 205 0 min 0 W/m 9,6 C 6,4 C 17,8 km/h (3 Bft)
25.09.2012 02:00 11,8 C 86 % 994,5 hPa 0,0 l/m 21,1 km/h (4 Bft) S-SW 210 0 min 0 W/m 9,5 C 5,3 C 21,1 km/h (4 Bft)
25.09.2012 02:15 11,9 C 86 % 994,5 hPa 0,0 l/m 19,8 km/h (3 Bft) S-SW 195 0 min 0 W/m 9,6 C 5,8 C 19,8 km/h (3 Bft)
25.09.2012 02:30 11,7 C 86 % 994,5 hPa 0,0 l/m 19,8 km/h (3 Bft) S-SW 200 0 min 0 W/m 9,4 C 5,5 C 19,8 km/h (3 Bft)
25.09.2012 02:45 11,6 C 86 % 994,5 hPa 0,0 l/m 16,1 km/h (3 Bft) S-SW 195 0 min 0 W/m 9,3 C 6,7 C 16,1 km/h (3 Bft)
25.09.2012 03:00 11,4 C 86 % 994,5 hPa 0,0 l/m 15,2 km/h (3 Bft) S 180 0 min 0 W/m 9,1 C 6,8 C 15,2 km/h (3 Bft)
25.09.2012 03:15 11,3 C 87 % 994,5 hPa 0,0 l/m 18,6 km/h (3 Bft) S 175 0 min 0 W/m 9,2 C 5,4 C 18,6 km/h (3 Bft)
25.09.2012 03:30 11,3 C 87 % 994,5 hPa 0,0 l/m 20,4 km/h (4 Bft) S 190 0 min 0 W/m 9,2 C 4,8 C 20,4 km/h (4 Bft)
25.09.2012 03:45 11,3 C 87 % 994,5 hPa 0,0 l/m 19,1 km/h (3 Bft) S 190 0 min 0 W/m 9,2 C 5,2 C 19,1 km/h (3 Bft)
25.09.2012 04:00 11,3 C 87 % 994,5 hPa 0,0 l/m 16,5 km/h (3 Bft) S 190 0 min 0 W/m 9,2 C 6,1 C 16,5 km/h (3 Bft)
25.09.2012 04:15 11,4 C 88 % 994,5 hPa 0,0 l/m 17,1 km/h (3 Bft) S 185 0 min 0 W/m 9,5 C 6,0 C 17,1 km/h (3 Bft)
25.09.2012 04:30 11,4 C 88 % 994,5 hPa 0,0 l/m 19,6 km/h (3 Bft) S 185 0 min 0 W/m 9,5 C 5,2 C 19,6 km/h (3 Bft)
25.09.2012 04:45 11,5 C 87 % 994,5 hPa 0,0 l/m 24,2 km/h (4 Bft) S-SW 195 0 min 0 W/m 9,4 C 4,1 C 24,2 km/h (4 Bft)
25.09.2012 05:00 11,6 C 87 % 994,5 hPa 0,0 l/m 22,0 km/h (4 Bft) S-SW 195 0 min 0 W/m 9,5 C 4,8 C 22,0 km/h (4 Bft)
25.09.2012 05:15 11,6 C 87 % 994,5 hPa 0,0 l/m 17,8 km/h (3 Bft) S-SW 195 0 min 0 W/m 9,5 C 6,1 C 17,8 km/h (3 Bft)
25.09.2012 05:30 11,6 C 87 % 994,5 hPa 0,0 l/m 17,0 km/h (3 Bft) S 190 0 min 0 W/m 9,5 C 6,3 C 17,0 km/h (3 Bft)
25.09.2012 05:45 11,7 C 87 % 994,5 hPa 0,0 l/m 14,7 km/h (3 Bft) S 175 0 min 0 W/m 9,6 C 7,3 C 14,7 km/h (3 Bft)
25.09.2012 06:00 11,8 C 87 % 994,5 hPa 0,0 l/m 15,8 km/h (3 Bft) S 170 0 min 0 W/m 9,7 C 7,0 C 15,8 km/h (3 Bft)
25.09.2012 06:15 12,0 C 87 % 994,5 hPa 0,0 l/m 19,8 km/h (3 Bft) S 180 0 min 0 W/m 9,9 C 5,9 C 19,8 km/h (3 Bft)
25.09.2012 06:30 12,0 C 87 % 994,5 hPa 0,0 l/m 19,0 km/h (3 Bft) S 190 0 min 0 W/m 9,9 C 6,2 C 19,0 km/h (3 Bft)
25.09.2012 06:45 12,0 C 87 % 994,5 hPa 0,0 l/m 18,6 km/h (3 Bft) S 185 0 min 0 W/m 9,9 C 6,3 C 18,6 km/h (3 Bft)
25.09.2012 06:59 12,0 C 87 % 994,5 hPa 0,0 l/m 20,4 km/h (4 Bft) S 190 0 min 0 W/m 9,9 C 5,8 C 20,4 km/h (4 Bft)
25.09.2012 07:15 12,0 C 87 % 994,5 hPa 0,0 l/m 22,0 km/h (4 Bft) S 185 0 min 0 W/m 9,9 C 5,3 C 22,0 km/h (4 Bft)
25.09.2012 07:30 12,0 C 87 % 994,5 hPa 0,0 l/m 20,6 km/h (4 Bft) S 185 0 min 0 W/m 9,9 C 5,7 C 20,6 km/h (4 Bft)
25.09.2012 07:45 12,0 C 88 % 994,5 hPa 0,0 l/m 16,6 km/h (3 Bft) S 190 0 min 0 W/m 10,1 C 7,0 C 16,6 km/h (3 Bft)
25.09.2012 08:00 12,0 C 88 % 994,5 hPa 0,0 l/m 21,3 km/h (4 Bft) S-SW 195 0 min 0 W/m 10,1 C 5,5 C 21,3 km/h (4 Bft)
25.09.2012 08:15 12,0 C 88 % 994,5 hPa 0,0 l/m 16,1 km/h (3 Bft) S 180 0 min 0 W/m 10,1 C 7,1 C 16,1 km/h (3 Bft)
25.09.2012 08:30 12,1 C 89 % 994,5 hPa 0,0 l/m 16,5 km/h (3 Bft) S 180 0 min 0 W/m 10,3 C 7,1 C 16,5 km/h (3 Bft)
25.09.2012 08:44 12,2 C 89 % 994,5 hPa 0,0 l/m 18,6 km/h (3 Bft) S-SW 195 0 min 0 W/m 10,4 C 6,6 C 18,6 km/h (3 Bft)
25.09.2012 09:00 12,3 C 89 % 994,5 hPa 0,0 l/m 24,4 km/h (4 Bft) S-SW 200 0 min 0 W/m 10,5 C 5,1 C 24,4 km/h (4 Bft)
25.09.2012 09:15 12,4 C 88 % 994,5 hPa 0,0 l/m 23,4 km/h (4 Bft) S-SW 205 0 min 0 W/m 10,5 C 5,5 C 23,4 km/h (4 Bft)
25.09.2012 09:30 12,5 C 88 % 994,5 hPa 0,0 l/m 21,3 km/h (4 Bft) S-SW 195 0 min 0 W/m 10,6 C 6,2 C 21,3 km/h (4 Bft)
25.09.2012 09:45 12,8 C 88 % 994,5 hPa 0,0 l/m 20,3 km/h (4 Bft) S-SW 205 0 min 0 W/m 10,9 C 6,8 C 20,3 km/h (4 Bft)
25.09.2012 10:00 13,0 C 87 % 994,5 hPa 0,0 l/m 20,8 km/h (4 Bft) S-SW 195 0 min 0 W/m 10,9 C 6,9 C 20,8 km/h (4 Bft)
25.09.2012 10:15 13,2 C 87 % 994,5 hPa 0,0 l/m 19,2 km/h (3 Bft) S-SW 205 0 min 0 W/m 11,1 C 7,6 C 19,2 km/h (3 Bft)
25.09.2012 10:30 13,4 C 86 % 995,5 hPa 0,0 l/m 24,6 km/h (4 Bft) S-SW 210 0 min 0 W/m 11,1 C 6,5 C 24,6 km/h (4 Bft)
25.09.2012 10:45 13,6 C 86 % 995,5 hPa 0,0 l/m 23,0 km/h (4 Bft) S-SW 210 0 min 0 W/m 11,3 C 7,2 C 23,0 km/h (4 Bft)
25.09.2012 11:00 13,8 C 86 % 995,5 hPa 0,0 l/m 22,4 km/h (4 Bft) SW 215 0 min 0 W/m 11,5 C 7,6 C 22,4 km/h (4 Bft)
25.09.2012 11:15 14,0 C 85 % 995,5 hPa 0,0 l/m 21,5 km/h (4 Bft) SW 220 0 min 0 W/m 11,5 C 8,1 C 21,5 km/h (4 Bft)
25.09.2012 11:30 14,2 C 85 % 995,5 hPa 0,0 l/m 20,6 km/h (4 Bft) SW 215 0 min 0 W/m 11,7 C 8,6 C 20,6 km/h (4 Bft)
25.09.2012 11:45 14,3 C 85 % 995,5 hPa 0,0 l/m 26,3 km/h (4 Bft) SW 230 0 min 0 W/m 11,8 C 7,4 C 26,3 km/h (4 Bft)
25.09.2012 12:00 14,3 C 84 % 995,5 hPa 0,0 l/m 22,1 km/h (4 Bft) SW 230 0 min 0 W/m 11,6 C 8,3 C 22,1 km/h (4 Bft)
25.09.2012 12:15 14,4 C 84 % 995,5 hPa 0,0 l/m 18,8 km/h (3 Bft) W-SW 250 0 min 0 W/m 11,7 C 9,3 C 18,8 km/h (3 Bft)
25.09.2012 12:30 14,6 C 84 % 995,5 hPa 0,0 l/m 19,1 km/h (3 Bft) SW 235 0 min 0 W/m 11,9 C 9,5 C 19,1 km/h (3 Bft)
25.09.2012 12:45 15,0 C 83 % 995,5 hPa 0,0 l/m 23,5 km/h (4 Bft) SW 230 0 min 0 W/m 12,1 C 8,9 C 23,5 km/h (4 Bft)
25.09.2012 12:59 15,4 C 80 % 995,5 hPa 0,0 l/m 22,6 km/h (4 Bft) W 260 0 min 0 W/m 12,0 C 9,7 C 22,6 km/h (4 Bft)
25.09.2012 13:15 15,0 C 79 % 996,5 hPa 0,0 l/m 24,1 km/h (4 Bft) W-SW 255 0 min 0 W/m 11,4 C 8,8 C 24,1 km/h (4 Bft)
25.09.2012 13:30 15,0 C 79 % 996,5 hPa 0,0 l/m 22,1 km/h (4 Bft) W 265 0 min 0 W/m 11,4 C 9,2 C 22,1 km/h (4 Bft)
25.09.2012 13:44 14,9 C 80 % 996,5 hPa 0,0 l/m 21,0 km/h (4 Bft) W 260 0 min 0 W/m 11,5 C 9,4 C 21,0 km/h (4 Bft)
25.09.2012 14:00 14,8 C 81 % 996,5 hPa 0,0 l/m 16,4 km/h (3 Bft) W-SW 240 0 min 0 W/m 11,6 C 10,5 C 16,4 km/h (3 Bft)
25.09.2012 14:14 14,8 C 81 % 996,5 hPa 0,0 l/m 19,2 km/h (3 Bft) SW 215 0 min 0 W/m 11,6 C 9,7 C 19,2 km/h (3 Bft)
25.09.2012 14:30 14,7 C 80 % 996,5 hPa 0,0 l/m 21,4 km/h (4 Bft) SW 215 0 min 0 W/m 11,3 C 9,0 C 21,4 km/h (4 Bft)
25.09.2012 14:45 14,7 C 81 % 996,5 hPa 0,0 l/m 22,3 km/h (4 Bft) SW 220 0 min 0 W/m 11,5 C 8,8 C 22,3 km/h (4 Bft)
25.09.2012 15:00 15,0 C 79 % 996,5 hPa 0,0 l/m 19,6 km/h (3 Bft) SW 225 0 min 0 W/m 11,4 C 9,8 C 19,6 km/h (3 Bft)
25.09.2012 15:15 15,1 C 79 % 996,5 hPa 0,0 l/m 16,5 km/h (3 Bft) SW 225 0 min 0 W/m 11,5 C 10,8 C 16,5 km/h (3 Bft)
25.09.2012 15:30 15,3 C 79 % 996,5 hPa 0,0 l/m 18,0 km/h (3 Bft) SW 230 0 min 0 W/m 11,7 C 10,7 C 18,0 km/h (3 Bft)
25.09.2012 15:45 15,4 C 77 % 996,5 hPa 0,0 l/m 19,0 km/h (3 Bft) W-SW 240 0 min 0 W/m 11,4 C 10,5 C 19,0 km/h (3 Bft)
25.09.2012 16:00 15,5 C 76 % 996,5 hPa 0,0 l/m 28,3 km/h (5 Bft) SW 220 0 min 0 W/m 11,3 C 8,7 C 28,3 km/h (5 Bft)
25.09.2012 16:15 15,7 C 76 % 996,5 hPa 0,0 l/m 17,6 km/h (3 Bft) SW 215 0 min 0 W/m 11,5 C 11,3 C 17,6 km/h (3 Bft)
25.09.2012 16:30 15,4 C 76 % 996,5 hPa 0,0 l/m 22,0 km/h (4 Bft) W-SW 255 0 min 0 W/m 11,2 C 9,8 C 22,0 km/h (4 Bft)
25.09.2012 16:45 15,4 C 77 % 996,5 hPa 0,0 l/m 13,8 km/h (3 Bft) SW 230 0 min 0 W/m 11,4 C 12,1 C 13,8 km/h (3 Bft)
25.09.2012 17:00 15,2 C 77 % 996,5 hPa 0,0 l/m 15,5 km/h (3 Bft) SW 220 0 min 0 W/m 11,2 C 11,3 C 15,5 km/h (3 Bft)
25.09.2012 17:15 15,0 C 78 % 997,5 hPa 0,0 l/m 15,6 km/h (3 Bft) SW 220 0 min 0 W/m 11,2 C 11,0 C 15,6 km/h (3 Bft)
25.09.2012 17:30 15,0 C 79 % 997,5 hPa 0,0 l/m 12,3 km/h (2 Bft) S 185 0 min 0 W/m 11,4 C 12,2 C 12,3 km/h (2 Bft)
25.09.2012 17:45 14,6 C 80 % 997,5 hPa 1,8 l/m 8,5 km/h (2 Bft) S-SO 160 0 min 0 W/m 11,2 C 13,4 C 8,5 km/h (2 Bft)
25.09.2012 18:00 14,0 C 83 % 997,5 hPa 3,0 l/m 27,1 km/h (5 Bft) W 275 0 min 0 W/m 11,2 C 6,8 C 27,1 km/h (5 Bft)
25.09.2012 18:15 13,2 C 84 % 997,5 hPa 1,2 l/m 24,1 km/h (4 Bft) W 270 0 min 0 W/m 10,6 C 6,4 C 24,1 km/h (4 Bft)
25.09.2012 18:30 13,2 C 85 % 997,5 hPa 0,0 l/m 10,0 km/h (2 Bft) S-SW 205 0 min 0 W/m 10,7 C 11,1 C 10,0 km/h (2 Bft)
25.09.2012 18:45 13,2 C 85 % 997,5 hPa 0,0 l/m 11,5 km/h (2 Bft) S-SO 150 0 min 0 W/m 10,7 C 10,4 C 11,5 km/h (2 Bft)
25.09.2012 18:59 12,7 C 86 % 997,5 hPa 0,0 l/m 10,6 km/h (2 Bft) S-SO 165 0 min 0 W/m 10,4 C 10,3 C 10,6 km/h (2 Bft)
25.09.2012 19:15 12,3 C 86 % 997,5 hPa 0,0 l/m 11,2 km/h (2 Bft) S 180 0 min 0 W/m 10,0 C 9,5 C 11,2 km/h (2 Bft)
25.09.2012 19:30 12,1 C 86 % 997,5 hPa 0,0 l/m 9,8 km/h (2 Bft) S 170 0 min 0 W/m 9,8 C 10,0 C 9,8 km/h (2 Bft)
25.09.2012 19:45 11,9 C 87 % 997,5 hPa 0,0 l/m 12,1 km/h (2 Bft) S 185 0 min 0 W/m 9,8 C 8,7 C 12,1 km/h (2 Bft)
25.09.2012 20:00 11,7 C 87 % 997,5 hPa 0,0 l/m 13,3 km/h (3 Bft) S 180 0 min 0 W/m 9,6 C 7,9 C 13,3 km/h (3 Bft)
25.09.2012 20:15 11,6 C 87 % 998,5 hPa 0,0 l/m 12,4 km/h (2 Bft) S-SW 200 0 min 0 W/m 9,5 C 8,2 C 12,4 km/h (2 Bft)
25.09.2012 20:30 11,5 C 88 % 998,5 hPa 0,0 l/m 12,0 km/h (2 Bft) S 185 0 min 0 W/m 9,6 C 8,2 C 12,0 km/h (2 Bft)
25.09.2012 20:45 11,4 C 88 % 998,5 hPa 0,0 l/m 10,0 km/h (2 Bft) S 190 0 min 0 W/m 9,5 C 9,1 C 10,0 km/h (2 Bft)
25.09.2012 21:00 11,3 C 88 % 998,5 hPa 0,0 l/m 12,3 km/h (2 Bft) S 185 0 min 0 W/m 9,4 C 7,9 C 12,3 km/h (2 Bft)
25.09.2012 21:15 11,2 C 88 % 998,5 hPa 0,0 l/m 9,4 km/h (2 Bft) S 180 0 min 0 W/m 9,3 C 9,3 C 9,4 km/h (2 Bft)
25.09.2012 21:30 11,1 C 88 % 998,5 hPa 0,0 l/m 11,6 km/h (2 Bft) S-SW 195 0 min 0 W/m 9,2 C 8,0 C 11,6 km/h (2 Bft)
25.09.2012 21:45 11,0 C 88 % 998,5 hPa 0,0 l/m 8,1 km/h (2 Bft) S 185 0 min 0 W/m 9,1 C 9,8 C 8,1 km/h (2 Bft)
25.09.2012 22:00 10,9 C 88 % 998,5 hPa 0,0 l/m 14,3 km/h (3 Bft) S 170 0 min 0 W/m 9,0 C 6,5 C 14,3 km/h (3 Bft)
25.09.2012 22:15 10,9 C 89 % 998,5 hPa 0,0 l/m 14,6 km/h (3 Bft) S 185 0 min 0 W/m 9,2 C 6,4 C 14,6 km/h (3 Bft)
25.09.2012 22:30 10,9 C 89 % 998,5 hPa 0,0 l/m 11,2 km/h (2 Bft) S 180 0 min 0 W/m 9,2 C 7,9 C 11,2 km/h (2 Bft)
25.09.2012 22:45 10,8 C 89 % 998,5 hPa 0,0 l/m 11,3 km/h (2 Bft) S 180 0 min 0 W/m 9,1 C 7,8 C 11,3 km/h (2 Bft)
25.09.2012 22:59 10,8 C 89 % 998,5 hPa 0,0 l/m 14,1 km/h (3 Bft) S-SW 200 0 min 0 W/m 9,1 C 6,5 C 14,1 km/h (3 Bft)
25.09.2012 23:15 10,8 C 89 % 998,5 hPa 0,0 l/m 12,5 km/h (2 Bft) S 185 0 min 0 W/m 9,1 C 7,2 C 12,5 km/h (2 Bft)
25.09.2012 23:29 10,7 C 89 % 998,5 hPa 0,0 l/m 13,6 km/h (3 Bft) S 185 0 min 0 W/m 9,0 C 6,6 C 13,6 km/h (3 Bft)
25.09.2012 23:45 10,7 C 89 % 998,5 hPa 0,0 l/m 12,4 km/h (2 Bft) S 185 0 min 0 W/m 9,0 C 7,1 C 12,4 km/h (2 Bft)
_ Min-Zeit 23:29 16:00 00:00 - 21:45 - - - - 23:29 04:45 21:45
Minimum _ 10,7 C 76 % 993,5 hPa - 8,1 km/h (2 Bft) - - - - 9,0 C 4,1 C 8,1 km/h (2 Bft)
_ Max-Zeit 16:15 08:30 20:15 18:00 00:00 - - 00:00 00:00 12:45 17:45 00:00
Maximum _ 15,7 C 89 % 998,5 hPa 3,0 l/m 30,8 km/h
SW (5 Bft)
- - 0 min 0 W/m 12,1 C 13,4 C 30,8 km/h
SW (5 Bft)
Durchschnitt _ 12,8 C 85 % 995,9 hPa #6,0 l/m 18,2 km/h (3 Bft) S - #0 min. 0 W/m 10,3 C 7,7 C 18,2 km/h (3 Bft)
copyright by Holger Just